sensor_id;sensor_type;location;lat;lon;timestamp;temperature;humidity
23532;DHT22;11943;52.270;20.978;2023-05-16T00:01:49;11.90;99.90
23532;DHT22;11943;52.270;20.978;2023-05-16T00:04:15;11.90;99.90
23532;DHT22;11943;52.270;20.978;2023-05-16T00:06:42;11.90;99.90
23532;DHT22;11943;52.270;20.978;2023-05-16T00:09:07;12.00;99.90
23532;DHT22;11943;52.270;20.978;2023-05-16T00:11:33;12.00;99.90
23532;DHT22;11943;52.270;20.978;2023-05-16T00:13:58;12.00;99.90
23532;DHT22;11943;52.270;20.978;2023-05-16T00:16:25;12.00;99.90
23532;DHT22;11943;52.270;20.978;2023-05-16T00:18:53;12.00;99.90
23532;DHT22;11943;52.270;20.978;2023-05-16T00:21:19;12.10;99.90
23532;DHT22;11943;52.270;20.978;2023-05-16T00:23:45;12.10;99.90
23532;DHT22;11943;52.270;20.978;2023-05-16T00:26:10;12.10;99.90
23532;DHT22;11943;52.270;20.978;2023-05-16T00:28:36;12.10;99.90
23532;DHT22;11943;52.270;20.978;2023-05-16T00:31:02;12.10;99.90
23532;DHT22;11943;52.270;20.978;2023-05-16T00:33:27;12.10;99.90
23532;DHT22;11943;52.270;20.978;2023-05-16T00:35:53;12.10;99.90
23532;DHT22;11943;52.270;20.978;2023-05-16T00:38:19;12.10;99.90
23532;DHT22;11943;52.270;20.978;2023-05-16T00:40:44;12.10;99.90
23532;DHT22;11943;52.270;20.978;2023-05-16T00:43:11;12.10;99.90
23532;DHT22;11943;52.270;20.978;2023-05-16T00:45:36;12.10;99.90
23532;DHT22;11943;52.270;20.978;2023-05-16T00:48:02;12.10;99.90
23532;DHT22;11943;52.270;20.978;2023-05-16T00:50:28;12.10;99.90
23532;DHT22;11943;52.270;20.978;2023-05-16T00:52:54;12.10;99.90
23532;DHT22;11943;52.270;20.978;2023-05-16T00:55:20;12.00;99.90
23532;DHT22;11943;52.270;20.978;2023-05-16T00:57:46;12.00;99.90
23532;DHT22;11943;52.270;20.978;2023-05-16T01:00:12;12.10;99.90
23532;DHT22;11943;52.270;20.978;2023-05-16T01:02:40;12.00;99.90
23532;DHT22;11943;52.270;20.978;2023-05-16T01:05:06;12.10;99.90
23532;DHT22;11943;52.270;20.978;2023-05-16T01:07:33;12.10;99.90
23532;DHT22;11943;52.270;20.978;2023-05-16T01:10:01;12.10;99.90
23532;DHT22;11943;52.270;20.978;2023-05-16T01:12:44;12.10;99.90
23532;DHT22;11943;52.270;20.978;2023-05-16T01:15:25;12.20;99.90
23532;DHT22;11943;52.270;20.978;2023-05-16T01:18:10;12.20;99.90
23532;DHT22;11943;52.270;20.978;2023-05-16T01:21:00;12.20;99.90
23532;DHT22;11943;52.270;20.978;2023-05-16T01:26:14;12.10;99.90
23532;DHT22;11943;52.270;20.978;2023-05-16T01:28:41;12.10;99.90
23532;DHT22;11943;52.270;20.978;2023-05-16T01:31:07;12.00;99.90
23532;DHT22;11943;52.270;20.978;2023-05-16T01:33:33;12.00;99.90
23532;DHT22;11943;52.270;20.978;2023-05-16T01:36:16;12.00;99.90
23532;DHT22;11943;52.270;20.978;2023-05-16T01:39:04;12.00;99.90
23532;DHT22;11943;52.270;20.978;2023-05-16T01:44:30;12.10;99.90
23532;DHT22;11943;52.270;20.978;2023-05-16T01:46:58;12.20;99.90
23532;DHT22;11943;52.270;20.978;2023-05-16T01:51:59;12.10;99.90
23532;DHT22;11943;52.270;20.978;2023-05-16T01:54:30;12.10;99.90
23532;DHT22;11943;52.270;20.978;2023-05-16T01:56:56;12.20;99.90
23532;DHT22;11943;52.270;20.978;2023-05-16T01:59:23;12.00;99.90
23532;DHT22;11943;52.270;20.978;2023-05-16T02:02:01;12.00;99.90
23532;DHT22;11943;52.270;20.978;2023-05-16T02:04:26;12.10;99.90
23532;DHT22;11943;52.270;20.978;2023-05-16T02:06:52;12.10;99.90
23532;DHT22;11943;52.270;20.978;2023-05-16T02:09:18;12.10;99.90
23532;DHT22;11943;52.270;20.978;2023-05-16T02:11:44;12.10;99.90
23532;DHT22;11943;52.270;20.978;2023-05-16T02:14:11;12.10;99.90
23532;DHT22;11943;52.270;20.978;2023-05-16T02:16:37;12.20;99.90
23532;DHT22;11943;52.270;20.978;2023-05-16T02:19:03;12.20;99.90
23532;DHT22;11943;52.270;20.978;2023-05-16T02:21:28;12.10;99.90
23532;DHT22;11943;52.270;20.978;2023-05-16T02:23:54;12.10;99.90
23532;DHT22;11943;52.270;20.978;2023-05-16T02:26:20;12.10;99.90
23532;DHT22;11943;52.270;20.978;2023-05-16T02:28:46;12.00;99.90
23532;DHT22;11943;52.270;20.978;2023-05-16T02:31:25;12.10;99.90
23532;DHT22;11943;52.270;20.978;2023-05-16T02:33:50;12.10;99.90
23532;DHT22;11943;52.270;20.978;2023-05-16T02:36:16;12.10;99.90
23532;DHT22;11943;52.270;20.978;2023-05-16T02:38:41;12.10;99.90
23532;DHT22;11943;52.270;20.978;2023-05-16T02:41:07;12.10;99.90
23532;DHT22;11943;52.270;20.978;2023-05-16T02:43:33;12.00;99.90
23532;DHT22;11943;52.270;20.978;2023-05-16T02:45:58;12.00;99.90
23532;DHT22;11943;52.270;20.978;2023-05-16T02:48:24;12.00;99.90
23532;DHT22;11943;52.270;20.978;2023-05-16T02:50:49;12.00;99.90
23532;DHT22;11943;52.270;20.978;2023-05-16T02:53:16;12.00;99.90
23532;DHT22;11943;52.270;20.978;2023-05-16T02:55:42;11.90;99.90
23532;DHT22;11943;52.270;20.978;2023-05-16T02:58:07;11.90;99.90
23532;DHT22;11943;52.270;20.978;2023-05-16T03:00:33;11.80;99.90
23532;DHT22;11943;52.270;20.978;2023-05-16T03:02:59;11.80;99.90
23532;DHT22;11943;52.270;20.978;2023-05-16T03:05:24;11.80;99.90
23532;DHT22;11943;52.270;20.978;2023-05-16T03:07:50;11.70;99.90
23532;DHT22;11943;52.270;20.978;2023-05-16T03:10:16;11.70;99.90
23532;DHT22;11943;52.270;20.978;2023-05-16T03:12:42;11.70;99.90
23532;DHT22;11943;52.270;20.978;2023-05-16T03:15:08;11.60;99.90
23532;DHT22;11943;52.270;20.978;2023-05-16T03:17:34;11.60;99.90
23532;DHT22;11943;52.270;20.978;2023-05-16T03:19:59;11.60;99.90
23532;DHT22;11943;52.270;20.978;2023-05-16T03:22:25;11.60;99.90
23532;DHT22;11943;52.270;20.978;2023-05-16T03:24:51;11.60;99.90
23532;DHT22;11943;52.270;20.978;2023-05-16T03:27:17;11.50;99.90
23532;DHT22;11943;52.270;20.978;2023-05-16T03:29:42;11.50;99.90
23532;DHT22;11943;52.270;20.978;2023-05-16T03:32:10;11.50;99.90
23532;DHT22;11943;52.270;20.978;2023-05-16T03:34:36;11.50;99.90
23532;DHT22;11943;52.270;20.978;2023-05-16T03:37:01;11.50;99.90
23532;DHT22;11943;52.270;20.978;2023-05-16T03:39:27;11.60;99.90
23532;DHT22;11943;52.270;20.978;2023-05-16T03:41:53;11.50;99.90
23532;DHT22;11943;52.270;20.978;2023-05-16T03:44:21;11.60;99.90
23532;DHT22;11943;52.270;20.978;2023-05-16T03:46:47;11.60;99.90
23532;DHT22;11943;52.270;20.978;2023-05-16T03:49:12;11.60;99.90
23532;DHT22;11943;52.270;20.978;2023-05-16T03:51:38;11.60;99.90
23532;DHT22;11943;52.270;20.978;2023-05-16T03:54:04;11.60;99.90
23532;DHT22;11943;52.270;20.978;2023-05-16T03:56:29;11.60;99.90
23532;DHT22;11943;52.270;20.978;2023-05-16T03:58:55;11.60;99.90
23532;DHT22;11943;52.270;20.978;2023-05-16T04:01:20;11.70;99.90
23532;DHT22;11943;52.270;20.978;2023-05-16T04:03:46;11.70;99.90
23532;DHT22;11943;52.270;20.978;2023-05-16T04:06:12;11.70;99.90
23532;DHT22;11943;52.270;20.978;2023-05-16T04:08:38;11.70;99.90
23532;DHT22;11943;52.270;20.978;2023-05-16T04:11:04;11.70;99.90
23532;DHT22;11943;52.270;20.978;2023-05-16T04:13:30;11.80;99.90
23532;DHT22;11943;52.270;20.978;2023-05-16T04:15:55;11.80;99.90
23532;DHT22;11943;52.270;20.978;2023-05-16T04:18:21;11.80;99.90
23532;DHT22;11943;52.270;20.978;2023-05-16T04:20:47;11.80;99.90
23532;DHT22;11943;52.270;20.978;2023-05-16T04:23:12;11.90;99.90
23532;DHT22;11943;52.270;20.978;2023-05-16T04:25:38;12.00;99.90
23532;DHT22;11943;52.270;20.978;2023-05-16T04:28:04;11.90;99.90
23532;DHT22;11943;52.270;20.978;2023-05-16T04:30:30;11.90;99.90
23532;DHT22;11943;52.270;20.978;2023-05-16T04:32:56;12.00;99.90
23532;DHT22;11943;52.270;20.978;2023-05-16T04:35:24;12.10;99.90
23532;DHT22;11943;52.270;20.978;2023-05-16T04:37:49;12.00;99.90
23532;DHT22;11943;52.270;20.978;2023-05-16T04:40:15;12.10;99.90
23532;DHT22;11943;52.270;20.978;2023-05-16T04:42:41;12.20;99.90
23532;DHT22;11943;52.270;20.978;2023-05-16T04:45:07;12.20;99.90
23532;DHT22;11943;52.270;20.978;2023-05-16T04:47:35;12.40;99.90
23532;DHT22;11943;52.270;20.978;2023-05-16T04:50:01;12.60;99.90
23532;DHT22;11943;52.270;20.978;2023-05-16T04:52:27;12.80;99.90
23532;DHT22;11943;52.270;20.978;2023-05-16T04:54:52;12.90;99.90
23532;DHT22;11943;52.270;20.978;2023-05-16T04:57:18;13.00;99.90
23532;DHT22;11943;52.270;20.978;2023-05-16T04:59:44;13.00;99.90
23532;DHT22;11943;52.270;20.978;2023-05-16T05:02:09;13.10;99.90
23532;DHT22;11943;52.270;20.978;2023-05-16T05:04:35;13.20;99.90
23532;DHT22;11943;52.270;20.978;2023-05-16T05:07:02;13.50;99.90
23532;DHT22;11943;52.270;20.978;2023-05-16T05:09:28;13.80;99.90
23532;DHT22;11943;52.270;20.978;2023-05-16T05:11:53;14.00;99.90
23532;DHT22;11943;52.270;20.978;2023-05-16T05:14:19;14.30;99.90
23532;DHT22;11943;52.270;20.978;2023-05-16T05:16:44;14.60;99.90
23532;DHT22;11943;52.270;20.978;2023-05-16T05:19:10;14.80;99.90
23532;DHT22;11943;52.270;20.978;2023-05-16T05:21:36;14.80;99.90
23532;DHT22;11943;52.270;20.978;2023-05-16T05:24:02;14.90;99.90
23532;DHT22;11943;52.270;20.978;2023-05-16T05:26:28;14.90;99.90
23532;DHT22;11943;52.270;20.978;2023-05-16T05:28:54;15.10;99.90
23532;DHT22;11943;52.270;20.978;2023-05-16T05:31:20;15.30;99.90
23532;DHT22;11943;52.270;20.978;2023-05-16T05:33:45;15.10;99.90
23532;DHT22;11943;52.270;20.978;2023-05-16T05:36:11;15.20;99.90
23532;DHT22;11943;52.270;20.978;2023-05-16T05:38:37;15.20;99.90
23532;DHT22;11943;52.270;20.978;2023-05-16T05:41:03;15.10;99.90
23532;DHT22;11943;52.270;20.978;2023-05-16T05:43:29;15.10;99.90
23532;DHT22;11943;52.270;20.978;2023-05-16T05:45:55;15.30;99.90
23532;DHT22;11943;52.270;20.978;2023-05-16T05:48:21;15.10;99.90
23532;DHT22;11943;52.270;20.978;2023-05-16T05:50:46;14.80;99.90
23532;DHT22;11943;52.270;20.978;2023-05-16T05:53:12;14.80;99.90
23532;DHT22;11943;52.270;20.978;2023-05-16T05:55:38;14.50;99.90
23532;DHT22;11943;52.270;20.978;2023-05-16T05:58:06;14.40;99.90
23532;DHT22;11943;52.270;20.978;2023-05-16T06:00:31;14.00;99.90
23532;DHT22;11943;52.270;20.978;2023-05-16T06:02:57;14.00;99.90
23532;DHT22;11943;52.270;20.978;2023-05-16T06:05:24;14.00;99.90
23532;DHT22;11943;52.270;20.978;2023-05-16T06:07:50;14.00;99.90
23532;DHT22;11943;52.270;20.978;2023-05-16T06:10:16;13.90;99.90
23532;DHT22;11943;52.270;20.978;2023-05-16T06:12:41;13.90;99.90
23532;DHT22;11943;52.270;20.978;2023-05-16T06:15:08;13.90;99.90
23532;DHT22;11943;52.270;20.978;2023-05-16T06:17:34;13.80;99.90
23532;DHT22;11943;52.270;20.978;2023-05-16T06:19:59;13.80;99.90
23532;DHT22;11943;52.270;20.978;2023-05-16T06:22:25;13.70;99.90
23532;DHT22;11943;52.270;20.978;2023-05-16T06:24:51;13.70;99.90
23532;DHT22;11943;52.270;20.978;2023-05-16T06:27:17;13.60;99.90
23532;DHT22;11943;52.270;20.978;2023-05-16T06:29:42;13.60;99.90
23532;DHT22;11943;52.270;20.978;2023-05-16T06:32:08;13.70;99.90
23532;DHT22;11943;52.270;20.978;2023-05-16T06:34:33;13.70;99.90
23532;DHT22;11943;52.270;20.978;2023-05-16T06:36:59;13.60;99.90
23532;DHT22;11943;52.270;20.978;2023-05-16T06:39:28;13.50;99.90
23532;DHT22;11943;52.270;20.978;2023-05-16T06:41:53;13.60;99.90
23532;DHT22;11943;52.270;20.978;2023-05-16T06:44:19;13.70;99.90
23532;DHT22;11943;52.270;20.978;2023-05-16T06:46:45;13.70;99.90
23532;DHT22;11943;52.270;20.978;2023-05-16T06:49:10;13.60;99.90
23532;DHT22;11943;52.270;20.978;2023-05-16T06:51:36;13.40;99.90
23532;DHT22;11943;52.270;20.978;2023-05-16T06:54:02;13.50;99.90
23532;DHT22;11943;52.270;20.978;2023-05-16T06:56:28;13.50;99.90
23532;DHT22;11943;52.270;20.978;2023-05-16T06:58:53;13.50;99.90
23532;DHT22;11943;52.270;20.978;2023-05-16T07:01:19;13.60;99.90
23532;DHT22;11943;52.270;20.978;2023-05-16T07:03:45;13.60;99.90
23532;DHT22;11943;52.270;20.978;2023-05-16T07:06:10;13.60;99.90
23532;DHT22;11943;52.270;20.978;2023-05-16T07:08:36;13.70;99.90
23532;DHT22;11943;52.270;20.978;2023-05-16T07:11:02;13.70;99.90
23532;DHT22;11943;52.270;20.978;2023-05-16T07:13:28;13.80;99.90
23532;DHT22;11943;52.270;20.978;2023-05-16T07:15:53;13.80;99.90
23532;DHT22;11943;52.270;20.978;2023-05-16T07:18:19;13.80;99.90
23532;DHT22;11943;52.270;20.978;2023-05-16T07:20:45;14.00;99.90
23532;DHT22;11943;52.270;20.978;2023-05-16T07:23:11;14.10;99.90
23532;DHT22;11943;52.270;20.978;2023-05-16T07:25:36;14.10;99.90
23532;DHT22;11943;52.270;20.978;2023-05-16T07:28:02;14.10;99.90
23532;DHT22;11943;52.270;20.978;2023-05-16T07:30:28;14.30;99.90
23532;DHT22;11943;52.270;20.978;2023-05-16T07:32:54;14.50;99.90
23532;DHT22;11943;52.270;20.978;2023-05-16T07:35:20;14.90;99.90
23532;DHT22;11943;52.270;20.978;2023-05-16T07:37:46;14.90;99.90
23532;DHT22;11943;52.270;20.978;2023-05-16T07:40:12;15.00;99.90
23532;DHT22;11943;52.270;20.978;2023-05-16T07:42:38;15.20;99.90
23532;DHT22;11943;52.270;20.978;2023-05-16T07:45:05;15.50;99.90
23532;DHT22;11943;52.270;20.978;2023-05-16T07:47:31;15.70;99.90
23532;DHT22;11943;52.270;20.978;2023-05-16T07:49:57;15.50;99.90
23532;DHT22;11943;52.270;20.978;2023-05-16T07:52:23;15.30;99.90
23532;DHT22;11943;52.270;20.978;2023-05-16T07:54:48;15.10;99.90
23532;DHT22;11943;52.270;20.978;2023-05-16T07:57:15;14.90;99.90
23532;DHT22;11943;52.270;20.978;2023-05-16T07:59:41;14.80;99.90
23532;DHT22;11943;52.270;20.978;2023-05-16T08:02:07;14.70;99.90
23532;DHT22;11943;52.270;20.978;2023-05-16T08:04:33;14.70;99.90
23532;DHT22;11943;52.270;20.978;2023-05-16T08:06:59;14.70;99.90
23532;DHT22;11943;52.270;20.978;2023-05-16T08:09:24;14.70;99.90
23532;DHT22;11943;52.270;20.978;2023-05-16T08:11:50;14.60;99.90
23532;DHT22;11943;52.270;20.978;2023-05-16T08:14:16;14.70;99.90
23532;DHT22;11943;52.270;20.978;2023-05-16T08:16:41;14.80;99.90
23532;DHT22;11943;52.270;20.978;2023-05-16T08:19:07;14.90;99.90
23532;DHT22;11943;52.270;20.978;2023-05-16T08:21:33;15.00;99.90
23532;DHT22;11943;52.270;20.978;2023-05-16T08:23:58;14.90;99.90
23532;DHT22;11943;52.270;20.978;2023-05-16T08:26:24;15.00;99.90
23532;DHT22;11943;52.270;20.978;2023-05-16T08:28:50;15.00;99.90
23532;DHT22;11943;52.270;20.978;2023-05-16T08:31:16;15.30;99.90
23532;DHT22;11943;52.270;20.978;2023-05-16T08:33:42;15.70;99.90
23532;DHT22;11943;52.270;20.978;2023-05-16T08:36:13;15.80;99.90
23532;DHT22;11943;52.270;20.978;2023-05-16T08:38:40;15.90;99.90
23532;DHT22;11943;52.270;20.978;2023-05-16T08:41:06;15.90;99.90
23532;DHT22;11943;52.270;20.978;2023-05-16T08:43:32;15.90;99.90
23532;DHT22;11943;52.270;20.978;2023-05-16T08:45:59;15.90;99.90
23532;DHT22;11943;52.270;20.978;2023-05-16T08:48:27;15.70;99.90
23532;DHT22;11943;52.270;20.978;2023-05-16T08:50:53;15.80;99.90
23532;DHT22;11943;52.270;20.978;2023-05-16T08:53:28;15.80;99.90
23532;DHT22;11943;52.270;20.978;2023-05-16T08:56:01;15.80;99.90
23532;DHT22;11943;52.270;20.978;2023-05-16T08:58:28;15.90;99.90
23532;DHT22;11943;52.270;20.978;2023-05-16T09:00:54;15.90;99.90
23532;DHT22;11943;52.270;20.978;2023-05-16T09:03:20;15.80;99.90
23532;DHT22;11943;52.270;20.978;2023-05-16T09:05:48;15.70;99.90
23532;DHT22;11943;52.270;20.978;2023-05-16T09:08:14;15.80;99.90
23532;DHT22;11943;52.270;20.978;2023-05-16T09:10:40;15.50;99.90
23532;DHT22;11943;52.270;20.978;2023-05-16T09:13:06;15.50;99.90
23532;DHT22;11943;52.270;20.978;2023-05-16T09:15:32;15.60;99.90
23532;DHT22;11943;52.270;20.978;2023-05-16T09:18:01;15.70;99.90
23532;DHT22;11943;52.270;20.978;2023-05-16T09:20:27;16.00;99.90
23532;DHT22;11943;52.270;20.978;2023-05-16T09:22:57;16.20;99.90
23532;DHT22;11943;52.270;20.978;2023-05-16T09:25:26;16.50;99.90
23532;DHT22;11943;52.270;20.978;2023-05-16T09:27:56;16.60;99.90
23532;DHT22;11943;52.270;20.978;2023-05-16T09:30:26;16.70;99.90
23532;DHT22;11943;52.270;20.978;2023-05-16T09:32:52;16.90;99.90
23532;DHT22;11943;52.270;20.978;2023-05-16T09:35:19;17.10;99.90
23532;DHT22;11943;52.270;20.978;2023-05-16T09:37:46;17.50;99.80
23532;DHT22;11943;52.270;20.978;2023-05-16T09:40:12;17.80;97.80
23532;DHT22;11943;52.270;20.978;2023-05-16T09:42:38;17.60;96.20
23532;DHT22;11943;52.270;20.978;2023-05-16T09:45:04;17.60;96.70
23532;DHT22;11943;52.270;20.978;2023-05-16T09:47:30;17.40;96.10
23532;DHT22;11943;52.270;20.978;2023-05-16T09:49:56;17.20;99.90
23532;DHT22;11943;52.270;20.978;2023-05-16T09:52:21;17.00;98.60
23532;DHT22;11943;52.270;20.978;2023-05-16T09:54:50;16.80;99.90
23532;DHT22;11943;52.270;20.978;2023-05-16T09:57:20;16.60;99.90
23532;DHT22;11943;52.270;20.978;2023-05-16T09:59:51;16.50;99.90
23532;DHT22;11943;52.270;20.978;2023-05-16T10:02:17;16.50;99.90
23532;DHT22;11943;52.270;20.978;2023-05-16T10:04:43;16.60;99.90
23532;DHT22;11943;52.270;20.978;2023-05-16T10:07:09;16.90;99.90
23532;DHT22;11943;52.270;20.978;2023-05-16T10:09:35;16.90;99.90
23532;DHT22;11943;52.270;20.978;2023-05-16T10:12:07;16.90;99.90
23532;DHT22;11943;52.270;20.978;2023-05-16T10:14:36;16.90;99.90
23532;DHT22;11943;52.270;20.978;2023-05-16T10:17:06;17.00;99.90
23532;DHT22;11943;52.270;20.978;2023-05-16T10:19:35;16.90;99.80
23532;DHT22;11943;52.270;20.978;2023-05-16T10:22:04;17.10;99.90
23532;DHT22;11943;52.270;20.978;2023-05-16T10:27:41;17.10;99.90
23532;DHT22;11943;52.270;20.978;2023-05-16T10:30:07;16.80;99.90
23532;DHT22;11943;52.270;20.978;2023-05-16T10:32:35;16.70;99.90
23532;DHT22;11943;52.270;20.978;2023-05-16T10:35:03;16.90;99.90
23532;DHT22;11943;52.270;20.978;2023-05-16T10:37:30;16.80;99.90
23532;DHT22;11943;52.270;20.978;2023-05-16T10:39:57;16.90;99.90
23532;DHT22;11943;52.270;20.978;2023-05-16T10:42:25;16.90;99.90
23532;DHT22;11943;52.270;20.978;2023-05-16T10:44:53;17.00;99.90
23532;DHT22;11943;52.270;20.978;2023-05-16T10:47:23;17.20;99.90
23532;DHT22;11943;52.270;20.978;2023-05-16T10:49:49;17.50;99.50
23532;DHT22;11943;52.270;20.978;2023-05-16T10:52:15;17.30;99.90
23532;DHT22;11943;52.270;20.978;2023-05-16T10:54:45;17.50;99.90
23532;DHT22;11943;52.270;20.978;2023-05-16T10:57:22;17.20;98.60
23532;DHT22;11943;52.270;20.978;2023-05-16T10:59:50;17.10;98.80
23532;DHT22;11943;52.270;20.978;2023-05-16T11:02:29;17.10;99.90
23532;DHT22;11943;52.270;20.978;2023-05-16T11:04:58;17.10;99.00
23532;DHT22;11943;52.270;20.978;2023-05-16T11:07:25;17.00;98.50
23532;DHT22;11943;52.270;20.978;2023-05-16T11:10:14;17.20;97.20
23532;DHT22;11943;52.270;20.978;2023-05-16T11:12:49;17.50;97.00
23532;DHT22;11943;52.270;20.978;2023-05-16T11:15:20;17.70;95.50
23532;DHT22;11943;52.270;20.978;2023-05-16T11:17:46;17.70;95.30
23532;DHT22;11943;52.270;20.978;2023-05-16T11:20:26;17.50;94.20
23532;DHT22;11943;52.270;20.978;2023-05-16T11:25:51;17.30;96.20
23532;DHT22;11943;52.270;20.978;2023-05-16T11:28:18;17.20;97.70
23532;DHT22;11943;52.270;20.978;2023-05-16T11:30:53;17.10;97.20
23532;DHT22;11943;52.270;20.978;2023-05-16T11:33:21;17.10;97.50
23532;DHT22;11943;52.270;20.978;2023-05-16T11:38:32;16.80;98.80
23532;DHT22;11943;52.270;20.978;2023-05-16T11:41:05;16.90;99.90
23532;DHT22;11943;52.270;20.978;2023-05-16T11:43:42;16.90;98.90
23532;DHT22;11943;52.270;20.978;2023-05-16T11:46:14;17.20;99.40
23532;DHT22;11943;52.270;20.978;2023-05-16T11:48:40;17.40;96.40
23532;DHT22;11943;52.270;20.978;2023-05-16T11:51:07;17.70;96.90
23532;DHT22;11943;52.270;20.978;2023-05-16T11:53:33;18.00;94.90
23532;DHT22;11943;52.270;20.978;2023-05-16T11:55:59;18.20;93.60
23532;DHT22;11943;52.270;20.978;2023-05-16T11:58:26;18.30;94.20
23532;DHT22;11943;52.270;20.978;2023-05-16T12:00:53;18.30;92.90
23532;DHT22;11943;52.270;20.978;2023-05-16T12:03:19;18.60;92.50
23532;DHT22;11943;52.270;20.978;2023-05-16T12:05:52;18.50;92.20
23532;DHT22;11943;52.270;20.978;2023-05-16T12:08:21;18.60;92.90
23532;DHT22;11943;52.270;20.978;2023-05-16T12:10:49;18.60;91.40
23532;DHT22;11943;52.270;20.978;2023-05-16T12:13:17;18.40;91.80
23532;DHT22;11943;52.270;20.978;2023-05-16T12:15:43;18.30;92.80
23532;DHT22;11943;52.270;20.978;2023-05-16T12:18:09;18.20;92.90
23532;DHT22;11943;52.270;20.978;2023-05-16T12:20:35;18.20;92.80
23532;DHT22;11943;52.270;20.978;2023-05-16T12:23:01;18.50;92.80
23532;DHT22;11943;52.270;20.978;2023-05-16T12:25:29;19.00;93.80
23532;DHT22;11943;52.270;20.978;2023-05-16T12:27:58;19.10;92.60
23532;DHT22;11943;52.270;20.978;2023-05-16T12:30:24;19.10;89.60
23532;DHT22;11943;52.270;20.978;2023-05-16T12:32:57;19.10;89.50
23532;DHT22;11943;52.270;20.978;2023-05-16T12:35:24;19.20;89.10
23532;DHT22;11943;52.270;20.978;2023-05-16T12:37:50;18.80;91.00
23532;DHT22;11943;52.270;20.978;2023-05-16T12:40:17;18.50;91.10
23532;DHT22;11943;52.270;20.978;2023-05-16T12:42:47;18.20;91.50
23532;DHT22;11943;52.270;20.978;2023-05-16T12:45:15;17.80;92.60
23532;DHT22;11943;52.270;20.978;2023-05-16T12:47:41;17.60;92.20
23532;DHT22;11943;52.270;20.978;2023-05-16T12:50:10;17.40;93.10
23532;DHT22;11943;52.270;20.978;2023-05-16T12:52:57;17.30;94.60
23532;DHT22;11943;52.270;20.978;2023-05-16T12:55:23;17.30;97.30
23532;DHT22;11943;52.270;20.978;2023-05-16T12:57:49;17.30;97.40
23532;DHT22;11943;52.270;20.978;2023-05-16T13:00:18;17.30;96.70
23532;DHT22;11943;52.270;20.978;2023-05-16T13:02:44;17.40;96.40
23532;DHT22;11943;52.270;20.978;2023-05-16T13:05:10;17.50;96.10
23532;DHT22;11943;52.270;20.978;2023-05-16T13:07:37;17.80;95.70
23532;DHT22;11943;52.270;20.978;2023-05-16T13:10:07;17.80;93.60
23532;DHT22;11943;52.270;20.978;2023-05-16T13:12:35;18.10;93.90
23532;DHT22;11943;52.270;20.978;2023-05-16T13:15:01;18.50;92.60
23532;DHT22;11943;52.270;20.978;2023-05-16T13:17:26;18.80;91.90
23532;DHT22;11943;52.270;20.978;2023-05-16T13:19:54;19.10;92.40
23532;DHT22;11943;52.270;20.978;2023-05-16T13:22:20;19.30;90.80
23532;DHT22;11943;52.270;20.978;2023-05-16T13:24:46;19.50;88.90
23532;DHT22;11943;52.270;20.978;2023-05-16T13:27:15;19.30;87.30
23532;DHT22;11943;52.270;20.978;2023-05-16T13:29:41;19.40;89.20
23532;DHT22;11943;52.270;20.978;2023-05-16T13:32:06;19.20;89.80
23532;DHT22;11943;52.270;20.978;2023-05-16T13:34:32;19.10;87.10
23532;DHT22;11943;52.270;20.978;2023-05-16T13:36:58;19.00;87.50
23532;DHT22;11943;52.270;20.978;2023-05-16T13:39:24;19.00;86.90
23532;DHT22;11943;52.270;20.978;2023-05-16T13:41:53;19.10;89.00
23532;DHT22;11943;52.270;20.978;2023-05-16T13:44:20;19.00;85.70
23532;DHT22;11943;52.270;20.978;2023-05-16T13:46:47;19.10;85.30
23532;DHT22;11943;52.270;20.978;2023-05-16T13:49:12;19.20;85.50
23532;DHT22;11943;52.270;20.978;2023-05-16T13:51:38;19.20;88.90
23532;DHT22;11943;52.270;20.978;2023-05-16T13:54:03;19.50;85.50
23532;DHT22;11943;52.270;20.978;2023-05-16T13:56:29;19.50;85.10
23532;DHT22;11943;52.270;20.978;2023-05-16T13:58:55;19.60;81.90
23532;DHT22;11943;52.270;20.978;2023-05-16T14:01:21;19.80;82.70
23532;DHT22;11943;52.270;20.978;2023-05-16T14:03:47;19.90;80.50
23532;DHT22;11943;52.270;20.978;2023-05-16T14:06:13;19.90;81.70
23532;DHT22;11943;52.270;20.978;2023-05-16T14:08:38;19.70;81.10
23532;DHT22;11943;52.270;20.978;2023-05-16T14:11:04;19.70;82.20
23532;DHT22;11943;52.270;20.978;2023-05-16T14:13:30;19.50;81.80
23532;DHT22;11943;52.270;20.978;2023-05-16T14:15:56;19.50;80.50
23532;DHT22;11943;52.270;20.978;2023-05-16T14:18:22;19.40;81.80
23532;DHT22;11943;52.270;20.978;2023-05-16T14:20:47;19.40;82.50
23532;DHT22;11943;52.270;20.978;2023-05-16T14:23:15;19.40;83.90
23532;DHT22;11943;52.270;20.978;2023-05-16T14:25:41;19.30;82.50
23532;DHT22;11943;52.270;20.978;2023-05-16T14:28:06;19.20;83.00
23532;DHT22;11943;52.270;20.978;2023-05-16T14:30:32;19.30;84.50
23532;DHT22;11943;52.270;20.978;2023-05-16T14:32:58;19.20;83.10
23532;DHT22;11943;52.270;20.978;2023-05-16T14:35:23;19.20;82.00
23532;DHT22;11943;52.270;20.978;2023-05-16T14:37:49;19.20;81.40
23532;DHT22;11943;52.270;20.978;2023-05-16T14:40:15;19.10;81.30
23532;DHT22;11943;52.270;20.978;2023-05-16T14:42:40;19.30;84.90
23532;DHT22;11943;52.270;20.978;2023-05-16T14:45:06;19.40;82.20
23532;DHT22;11943;52.270;20.978;2023-05-16T14:47:32;19.50;83.20
23532;DHT22;11943;52.270;20.978;2023-05-16T14:49:58;19.60;81.80
23532;DHT22;11943;52.270;20.978;2023-05-16T14:52:24;19.40;81.10
23532;DHT22;11943;52.270;20.978;2023-05-16T14:54:50;19.40;84.50
23532;DHT22;11943;52.270;20.978;2023-05-16T14:57:16;19.40;83.10
23532;DHT22;11943;52.270;20.978;2023-05-16T14:59:41;19.30;84.70
23532;DHT22;11943;52.270;20.978;2023-05-16T15:02:07;19.20;82.90
23532;DHT22;11943;52.270;20.978;2023-05-16T15:04:33;19.20;84.90
23532;DHT22;11943;52.270;20.978;2023-05-16T15:06:58;19.20;86.60
23532;DHT22;11943;52.270;20.978;2023-05-16T15:09:24;19.30;85.90
23532;DHT22;11943;52.270;20.978;2023-05-16T15:11:49;19.30;85.00
23532;DHT22;11943;52.270;20.978;2023-05-16T15:14:15;19.30;82.70
23532;DHT22;11943;52.270;20.978;2023-05-16T15:16:41;19.30;82.40
23532;DHT22;11943;52.270;20.978;2023-05-16T15:19:07;19.00;82.80
23532;DHT22;11943;52.270;20.978;2023-05-16T15:21:33;19.10;85.50
23532;DHT22;11943;52.270;20.978;2023-05-16T15:23:58;19.10;88.40
23532;DHT22;11943;52.270;20.978;2023-05-16T15:26:25;18.90;85.00
23532;DHT22;11943;52.270;20.978;2023-05-16T15:28:50;18.90;83.60
23532;DHT22;11943;52.270;20.978;2023-05-16T15:31:16;18.80;85.00